sensor_id;sensor_type;location;lat;lon;timestamp;pressure;altitude;pressure_sealevel;temperature;humidity
3598;BME280;1813;52.016;8.714;2023-12-22T00:00:29;-16261.94;;;-139.71;68.16
3598;BME280;1813;52.016;8.714;2023-12-22T00:03:03;-16261.94;;;-139.71;68.29
3598;BME280;1813;52.016;8.714;2023-12-22T00:05:36;-16261.94;;;-139.71;67.82
3598;BME280;1813;52.016;8.714;2023-12-22T00:08:09;-16261.94;;;-139.71;67.94
3598;BME280;1813;52.016;8.714;2023-12-22T00:10:43;-16261.94;;;-139.71;67.90
3598;BME280;1813;52.016;8.714;2023-12-22T00:13:16;-16261.94;;;-139.71;68.41
3598;BME280;1813;52.016;8.714;2023-12-22T00:15:52;-16261.94;;;-139.71;68.86
3598;BME280;1813;52.016;8.714;2023-12-22T00:18:25;-16261.94;;;-139.71;69.64
3598;BME280;1813;52.016;8.714;2023-12-22T00:20:59;-16261.94;;;-139.71;70.27
3598;BME280;1813;52.016;8.714;2023-12-22T00:23:32;-16261.94;;;-139.71;71.23
3598;BME280;1813;52.016;8.714;2023-12-22T00:26:06;-16261.94;;;-139.71;72.44
3598;BME280;1813;52.016;8.714;2023-12-22T00:28:39;-16261.94;;;-139.71;73.43
3598;BME280;1813;52.016;8.714;2023-12-22T00:31:16;-16261.94;;;-139.71;74.18
3598;BME280;1813;52.016;8.714;2023-12-22T00:33:49;-16261.94;;;-139.71;74.93
3598;BME280;1813;52.016;8.714;2023-12-22T00:36:22;-16261.94;;;-139.71;75.73
3598;BME280;1813;52.016;8.714;2023-12-22T00:38:56;-16261.94;;;-139.71;76.39
3598;BME280;1813;52.016;8.714;2023-12-22T00:41:29;-16261.94;;;-139.71;77.07
3598;BME280;1813;52.016;8.714;2023-12-22T00:44:02;-16261.94;;;-139.71;76.48
3598;BME280;1813;52.016;8.714;2023-12-22T00:46:38;-16261.94;;;-139.71;77.97
3598;BME280;1813;52.016;8.714;2023-12-22T00:49:11;-16261.94;;;-139.71;79.77
3598;BME280;1813;52.016;8.714;2023-12-22T00:51:44;-16261.94;;;-139.71;81.94
3598;BME280;1813;52.016;8.714;2023-12-22T00:54:18;-16261.94;;;-139.71;83.04
3598;BME280;1813;52.016;8.714;2023-12-22T00:56:51;-16261.94;;;-139.71;83.77
3598;BME280;1813;52.016;8.714;2023-12-22T00:59:24;-16261.94;;;-139.71;84.21
3598;BME280;1813;52.016;8.714;2023-12-22T01:02:00;-16261.94;;;-139.71;84.92
3598;BME280;1813;52.016;8.714;2023-12-22T01:04:34;-16261.94;;;-139.71;85.54
3598;BME280;1813;52.016;8.714;2023-12-22T01:07:07;-16261.94;;;-139.71;86.20
3598;BME280;1813;52.016;8.714;2023-12-22T01:09:43;-16261.94;;;-139.71;86.28
3598;BME280;1813;52.016;8.714;2023-12-22T01:12:16;-16261.94;;;-139.71;86.02
3598;BME280;1813;52.016;8.714;2023-12-22T01:14:49;-16261.94;;;-139.71;85.96
3598;BME280;1813;52.016;8.714;2023-12-22T01:17:25;-16261.94;;;-139.71;85.84
3598;BME280;1813;52.016;8.714;2023-12-22T01:19:58;-16261.94;;;-139.71;85.47
3598;BME280;1813;52.016;8.714;2023-12-22T01:22:32;-16261.94;;;-139.71;85.39
3598;BME280;1813;52.016;8.714;2023-12-22T01:25:08;-16261.94;;;-139.71;84.77
3598;BME280;1813;52.016;8.714;2023-12-22T01:27:42;-16261.94;;;-139.71;84.57
3598;BME280;1813;52.016;8.714;2023-12-22T01:30:16;-16261.94;;;-139.71;84.90
3598;BME280;1813;52.016;8.714;2023-12-22T01:32:52;-16261.94;;;-139.71;84.81
3598;BME280;1813;52.016;8.714;2023-12-22T01:35:25;-16261.94;;;-139.71;84.50
3598;BME280;1813;52.016;8.714;2023-12-22T01:37:59;-16261.94;;;-139.71;84.59
3598;BME280;1813;52.016;8.714;2023-12-22T01:40:32;-16261.94;;;-139.71;85.01
3598;BME280;1813;52.016;8.714;2023-12-22T01:43:06;-16261.94;;;-139.71;85.54
3598;BME280;1813;52.016;8.714;2023-12-22T01:45:39;-16261.94;;;-139.71;86.37
3598;BME280;1813;52.016;8.714;2023-12-22T01:48:16;-16261.94;;;-139.71;87.28
3598;BME280;1813;52.016;8.714;2023-12-22T01:50:50;-16261.94;;;-139.71;87.97
3598;BME280;1813;52.016;8.714;2023-12-22T01:53:25;-16261.94;;;-139.71;88.51
3598;BME280;1813;52.016;8.714;2023-12-22T01:56:00;-16261.94;;;-139.71;88.79
3598;BME280;1813;52.016;8.714;2023-12-22T01:58:36;-16261.94;;;-139.71;89.16
3598;BME280;1813;52.016;8.714;2023-12-22T02:01:22;-16261.94;;;-139.71;89.53
3598;BME280;1813;52.016;8.714;2023-12-22T02:03:59;-16261.94;;;-139.71;89.60
3598;BME280;1813;52.016;8.714;2023-12-22T02:06:34;-16261.94;;;-139.71;89.79
3598;BME280;1813;52.016;8.714;2023-12-22T02:09:09;-16261.94;;;-139.71;90.07
3598;BME280;1813;52.016;8.714;2023-12-22T02:11:42;-16261.94;;;-139.71;90.16
3598;BME280;1813;52.016;8.714;2023-12-22T02:14:15;-16261.94;;;-139.71;89.83
3598;BME280;1813;52.016;8.714;2023-12-22T02:16:52;-16261.94;;;-139.71;89.27
3598;BME280;1813;52.016;8.714;2023-12-22T02:19:40;-16261.94;;;-139.71;88.40
3598;BME280;1813;52.016;8.714;2023-12-22T02:22:14;-16261.94;;;-139.71;87.29
3598;BME280;1813;52.016;8.714;2023-12-22T02:24:50;-16261.94;;;-139.71;86.33
3598;BME280;1813;52.016;8.714;2023-12-22T02:27:28;-16261.94;;;-139.71;85.44
3598;BME280;1813;52.016;8.714;2023-12-22T02:30:09;-16261.94;;;-139.71;84.69
3598;BME280;1813;52.016;8.714;2023-12-22T02:32:47;-16261.94;;;-139.71;83.97
3598;BME280;1813;52.016;8.714;2023-12-22T02:35:24;-16261.94;;;-139.71;83.33
3598;BME280;1813;52.016;8.714;2023-12-22T02:37:59;-16261.94;;;-139.71;82.50
3598;BME280;1813;52.016;8.714;2023-12-22T02:40:38;-16261.94;;;-139.71;82.27
3598;BME280;1813;52.016;8.714;2023-12-22T02:43:12;-16261.94;;;-139.71;82.83
3598;BME280;1813;52.016;8.714;2023-12-22T02:45:49;-16261.94;;;-139.71;83.67
3598;BME280;1813;52.016;8.714;2023-12-22T02:48:23;-16261.94;;;-139.71;84.32
3598;BME280;1813;52.016;8.714;2023-12-22T02:50:56;-16261.94;;;-139.71;85.24
3598;BME280;1813;52.016;8.714;2023-12-22T02:53:29;-16261.94;;;-139.71;85.96
3598;BME280;1813;52.016;8.714;2023-12-22T02:56:06;-16261.94;;;-139.71;86.39
3598;BME280;1813;52.016;8.714;2023-12-22T02:58:39;-16261.94;;;-139.71;87.04
3598;BME280;1813;52.016;8.714;2023-12-22T03:01:12;-16261.94;;;-139.71;87.60
3598;BME280;1813;52.016;8.714;2023-12-22T03:03:46;-16261.94;;;-139.71;87.72
3598;BME280;1813;52.016;8.714;2023-12-22T03:06:19;-16261.94;;;-139.71;87.55
3598;BME280;1813;52.016;8.714;2023-12-22T03:08:52;-16261.94;;;-139.71;87.00
3598;BME280;1813;52.016;8.714;2023-12-22T03:11:28;-16261.94;;;-139.71;86.30
3598;BME280;1813;52.016;8.714;2023-12-22T03:14:01;-16261.94;;;-139.71;85.87
3598;BME280;1813;52.016;8.714;2023-12-22T03:16:34;-16261.94;;;-139.71;85.69
3598;BME280;1813;52.016;8.714;2023-12-22T03:19:08;-16261.94;;;-139.71;85.19
3598;BME280;1813;52.016;8.714;2023-12-22T03:21:41;-16261.94;;;-139.71;84.77
3598;BME280;1813;52.016;8.714;2023-12-22T03:24:14;-16261.94;;;-139.71;84.08
3598;BME280;1813;52.016;8.714;2023-12-22T03:26:52;-16261.94;;;-139.71;83.10
3598;BME280;1813;52.016;8.714;2023-12-22T03:29:25;-16261.94;;;-139.71;82.14
3598;BME280;1813;52.016;8.714;2023-12-22T03:31:58;-16261.94;;;-139.71;81.27
3598;BME280;1813;52.016;8.714;2023-12-22T03:34:32;-16261.94;;;-139.71;80.57
3598;BME280;1813;52.016;8.714;2023-12-22T03:37:05;-16261.94;;;-139.71;79.79
3598;BME280;1813;52.016;8.714;2023-12-22T03:39:38;-16261.94;;;-139.71;79.03
3598;BME280;1813;52.016;8.714;2023-12-22T03:42:14;-16261.94;;;-139.71;78.48
3598;BME280;1813;52.016;8.714;2023-12-22T03:44:47;-16261.94;;;-139.71;77.28
3598;BME280;1813;52.016;8.714;2023-12-22T03:47:20;-16261.94;;;-139.71;76.39
3598;BME280;1813;52.016;8.714;2023-12-22T03:49:54;-16261.94;;;-139.71;76.34
3598;BME280;1813;52.016;8.714;2023-12-22T03:52:27;-16261.94;;;-139.71;75.63
3598;BME280;1813;52.016;8.714;2023-12-22T03:55:00;-16261.94;;;-139.71;75.06
3598;BME280;1813;52.016;8.714;2023-12-22T03:57:36;-16261.94;;;-139.71;75.09
3598;BME280;1813;52.016;8.714;2023-12-22T04:00:10;-16261.94;;;-139.71;75.38
3598;BME280;1813;52.016;8.714;2023-12-22T04:02:44;-16261.94;;;-139.71;75.52
3598;BME280;1813;52.016;8.714;2023-12-22T04:05:17;-16261.94;;;-139.71;75.29
3598;BME280;1813;52.016;8.714;2023-12-22T04:07:51;-16261.94;;;-139.71;74.99
3598;BME280;1813;52.016;8.714;2023-12-22T04:10:24;-16261.94;;;-139.71;75.54
3598;BME280;1813;52.016;8.714;2023-12-22T04:13:00;-16261.94;;;-139.71;76.29
3598;BME280;1813;52.016;8.714;2023-12-22T04:15:33;-16261.94;;;-139.71;77.39
3598;BME280;1813;52.016;8.714;2023-12-22T04:18:06;-16261.94;;;-139.71;78.33
3598;BME280;1813;52.016;8.714;2023-12-22T04:20:39;-16261.94;;;-139.71;79.18
3598;BME280;1813;52.016;8.714;2023-12-22T04:23:13;-16261.94;;;-139.71;80.10
3598;BME280;1813;52.016;8.714;2023-12-22T04:25:46;-16261.94;;;-139.71;80.64
3598;BME280;1813;52.016;8.714;2023-12-22T04:28:22;-16261.94;;;-139.71;81.18
3598;BME280;1813;52.016;8.714;2023-12-22T04:30:55;-16261.94;;;-139.71;81.89
3598;BME280;1813;52.016;8.714;2023-12-22T04:33:28;-16261.94;;;-139.71;82.34
3598;BME280;1813;52.016;8.714;2023-12-22T04:36:02;-16261.94;;;-139.71;83.07
3598;BME280;1813;52.016;8.714;2023-12-22T04:38:35;-16261.94;;;-139.71;83.61
3598;BME280;1813;52.016;8.714;2023-12-22T04:41:10;-16261.94;;;-139.71;83.64
3598;BME280;1813;52.016;8.714;2023-12-22T04:43:46;-16261.94;;;-139.71;83.62
3598;BME280;1813;52.016;8.714;2023-12-22T04:46:19;-16261.94;;;-139.71;83.27
3598;BME280;1813;52.016;8.714;2023-12-22T04:48:53;-16261.94;;;-139.71;82.96
3598;BME280;1813;52.016;8.714;2023-12-22T04:51:26;-16261.94;;;-139.71;82.22
3598;BME280;1813;52.016;8.714;2023-12-22T04:53:59;-16261.94;;;-139.71;81.50
3598;BME280;1813;52.016;8.714;2023-12-22T04:56:32;-16261.94;;;-139.71;81.49
3598;BME280;1813;52.016;8.714;2023-12-22T04:59:08;-16261.94;;;-139.71;81.47
3598;BME280;1813;52.016;8.714;2023-12-22T05:01:42;-16261.94;;;-139.71;81.55
3598;BME280;1813;52.016;8.714;2023-12-22T05:04:15;-16261.94;;;-139.71;81.75
3598;BME280;1813;52.016;8.714;2023-12-22T05:06:49;-16261.94;;;-139.71;81.87
3598;BME280;1813;52.016;8.714;2023-12-22T05:09:22;-16261.94;;;-139.71;82.00
3598;BME280;1813;52.016;8.714;2023-12-22T05:11:55;-16261.94;;;-139.71;82.21
3598;BME280;1813;52.016;8.714;2023-12-22T05:14:31;-16261.94;;;-139.71;81.73
3598;BME280;1813;52.016;8.714;2023-12-22T05:17:04;-16261.94;;;-139.71;81.37
3598;BME280;1813;52.016;8.714;2023-12-22T05:19:38;-16261.94;;;-139.71;81.21
3598;BME280;1813;52.016;8.714;2023-12-22T05:22:11;-16261.94;;;-139.71;81.32
3598;BME280;1813;52.016;8.714;2023-12-22T05:24:44;-16261.94;;;-139.71;81.00
3598;BME280;1813;52.016;8.714;2023-12-22T05:27:18;-16261.94;;;-139.71;80.86
3598;BME280;1813;52.016;8.714;2023-12-22T05:29:54;-16261.94;;;-139.71;80.98
3598;BME280;1813;52.016;8.714;2023-12-22T05:32:31;-16261.94;;;-139.71;80.67
3598;BME280;1813;52.016;8.714;2023-12-22T05:35:05;-16261.94;;;-139.71;80.54
3598;BME280;1813;52.016;8.714;2023-12-22T05:37:40;-16261.94;;;-139.71;81.23
3598;BME280;1813;52.016;8.714;2023-12-22T05:40:13;-16261.94;;;-139.71;81.93
3598;BME280;1813;52.016;8.714;2023-12-22T05:42:47;-16261.94;;;-139.71;82.61
3598;BME280;1813;52.016;8.714;2023-12-22T05:45:22;-16261.94;;;-139.71;82.86
3598;BME280;1813;52.016;8.714;2023-12-22T05:47:56;-16261.94;;;-139.71;83.16
3598;BME280;1813;52.016;8.714;2023-12-22T05:50:29;-16261.94;;;-139.71;83.86
3598;BME280;1813;52.016;8.714;2023-12-22T05:53:03;-16261.94;;;-139.71;84.20
3598;BME280;1813;52.016;8.714;2023-12-22T05:55:36;-16261.94;;;-139.71;84.24
3598;BME280;1813;52.016;8.714;2023-12-22T05:58:10;-16261.94;;;-139.71;84.22
3598;BME280;1813;52.016;8.714;2023-12-22T06:00:45;-16261.94;;;-139.71;83.95
3598;BME280;1813;52.016;8.714;2023-12-22T06:03:19;-16261.94;;;-139.71;83.75
3598;BME280;1813;52.016;8.714;2023-12-22T06:05:52;-16261.94;;;-139.71;83.61
3598;BME280;1813;52.016;8.714;2023-12-22T06:08:26;-16261.94;;;-139.71;83.39
3598;BME280;1813;52.016;8.714;2023-12-22T06:10:59;-16261.94;;;-139.71;83.49
3598;BME280;1813;52.016;8.714;2023-12-22T06:13:33;-16261.94;;;-139.71;83.62
3598;BME280;1813;52.016;8.714;2023-12-22T06:16:11;-16261.94;;;-139.71;83.76
3598;BME280;1813;52.016;8.714;2023-12-22T06:18:44;-16261.94;;;-139.71;83.89
3598;BME280;1813;52.016;8.714;2023-12-22T06:21:18;-16261.94;;;-139.71;83.92
3598;BME280;1813;52.016;8.714;2023-12-22T06:23:52;-16261.94;;;-139.71;83.91
3598;BME280;1813;52.016;8.714;2023-12-22T06:26:25;-16261.94;;;-139.71;84.26
3598;BME280;1813;52.016;8.714;2023-12-22T06:28:58;-16261.94;;;-139.71;84.19
3598;BME280;1813;52.016;8.714;2023-12-22T06:31:34;-16261.94;;;-139.71;84.14
3598;BME280;1813;52.016;8.714;2023-12-22T06:34:07;-16261.94;;;-139.71;83.89
3598;BME280;1813;52.016;8.714;2023-12-22T06:36:40;-16261.94;;;-139.71;83.79
3598;BME280;1813;52.016;8.714;2023-12-22T06:39:14;-16261.94;;;-139.71;83.71
3598;BME280;1813;52.016;8.714;2023-12-22T06:41:47;-16261.94;;;-139.71;83.27
3598;BME280;1813;52.016;8.714;2023-12-22T06:44:20;-16261.94;;;-139.71;82.88
3598;BME280;1813;52.016;8.714;2023-12-22T06:46:58;-16261.94;;;-139.71;82.34
3598;BME280;1813;52.016;8.714;2023-12-22T06:49:31;-16261.94;;;-139.71;81.96
3598;BME280;1813;52.016;8.714;2023-12-22T06:52:05;-16261.94;;;-139.71;81.89
3598;BME280;1813;52.016;8.714;2023-12-22T06:54:38;-16261.94;;;-139.71;81.70
3598;BME280;1813;52.016;8.714;2023-12-22T06:57:11;-16261.94;;;-139.71;81.80
3598;BME280;1813;52.016;8.714;2023-12-22T06:59:45;-16261.94;;;-139.71;81.27
3598;BME280;1813;52.016;8.714;2023-12-22T07:02:21;-16261.94;;;-139.71;81.29
3598;BME280;1813;52.016;8.714;2023-12-22T07:05:02;-16261.94;;;-139.71;81.57
3598;BME280;1813;52.016;8.714;2023-12-22T07:07:36;-16261.94;;;-139.71;81.34
3598;BME280;1813;52.016;8.714;2023-12-22T07:10:09;-16261.94;;;-139.71;81.17
3598;BME280;1813;52.016;8.714;2023-12-22T07:12:43;-16261.94;;;-139.71;81.12
3598;BME280;1813;52.016;8.714;2023-12-22T07:15:16;-16261.94;;;-139.71;80.85
3598;BME280;1813;52.016;8.714;2023-12-22T07:17:52;-16261.94;;;-139.71;80.24
3598;BME280;1813;52.016;8.714;2023-12-22T07:20:25;-16261.94;;;-139.71;80.12
3598;BME280;1813;52.016;8.714;2023-12-22T07:22:59;-16261.94;;;-139.71;80.03
3598;BME280;1813;52.016;8.714;2023-12-22T07:25:36;-16261.94;;;-139.71;80.07
3598;BME280;1813;52.016;8.714;2023-12-22T07:28:09;-16261.94;;;-139.71;80.29
3598;BME280;1813;52.016;8.714;2023-12-22T07:30:42;-16261.94;;;-139.71;80.25
3598;BME280;1813;52.016;8.714;2023-12-22T07:33:18;-16261.94;;;-139.71;80.19
3598;BME280;1813;52.016;8.714;2023-12-22T07:35:52;-16261.94;;;-139.71;80.32
3598;BME280;1813;52.016;8.714;2023-12-22T07:38:25;-16261.94;;;-139.71;80.22
3598;BME280;1813;52.016;8.714;2023-12-22T07:40:59;-16261.94;;;-139.71;80.21
3598;BME280;1813;52.016;8.714;2023-12-22T07:43:32;-16261.94;;;-139.71;80.21
3598;BME280;1813;52.016;8.714;2023-12-22T07:46:05;-16261.94;;;-139.71;80.03
3598;BME280;1813;52.016;8.714;2023-12-22T07:48:42;-16261.94;;;-139.71;79.55
3598;BME280;1813;52.016;8.714;2023-12-22T07:51:15;-16261.94;;;-139.71;79.17
3598;BME280;1813;52.016;8.714;2023-12-22T07:53:49;-16261.94;;;-139.71;78.71
3598;BME280;1813;52.016;8.714;2023-12-22T07:56:22;-16261.94;;;-139.71;78.48
3598;BME280;1813;52.016;8.714;2023-12-22T07:58:55;-16261.94;;;-139.71;78.48
3598;BME280;1813;52.016;8.714;2023-12-22T08:01:30;-16261.94;;;-139.71;78.58
3598;BME280;1813;52.016;8.714;2023-12-22T08:04:06;-16261.94;;;-139.71;78.42
3598;BME280;1813;52.016;8.714;2023-12-22T08:06:39;-16261.94;;;-139.71;78.76
3598;BME280;1813;52.016;8.714;2023-12-22T08:09:13;-16261.94;;;-139.71;78.99
3598;BME280;1813;52.016;8.714;2023-12-22T08:11:46;-16261.94;;;-139.71;78.98
3598;BME280;1813;52.016;8.714;2023-12-22T08:14:23;-16261.94;;;-139.71;79.13
3598;BME280;1813;52.016;8.714;2023-12-22T08:16:56;-16261.94;;;-139.71;79.30
3598;BME280;1813;52.016;8.714;2023-12-22T08:19:32;-16261.94;;;-139.71;79.42
3598;BME280;1813;52.016;8.714;2023-12-22T08:22:05;-16261.94;;;-139.71;79.51
3598;BME280;1813;52.016;8.714;2023-12-22T08:24:38;-16261.94;;;-139.71;79.48
3598;BME280;1813;52.016;8.714;2023-12-22T08:27:12;-16261.94;;;-139.71;79.70
3598;BME280;1813;52.016;8.714;2023-12-22T08:29:45;-16261.94;;;-139.71;79.92
3598;BME280;1813;52.016;8.714;2023-12-22T08:32:18;-16261.94;;;-139.71;79.90
3598;BME280;1813;52.016;8.714;2023-12-22T08:34:55;-16261.94;;;-139.71;80.15
3598;BME280;1813;52.016;8.714;2023-12-22T08:37:28;-16261.94;;;-139.71;80.30
3598;BME280;1813;52.016;8.714;2023-12-22T08:40:01;-16261.94;;;-139.71;80.81
3598;BME280;1813;52.016;8.714;2023-12-22T08:42:36;-16261.94;;;-139.71;81.05
3598;BME280;1813;52.016;8.714;2023-12-22T08:45:09;-16261.94;;;-139.71;81.35
3598;BME280;1813;52.016;8.714;2023-12-22T08:47:44;-16261.94;;;-139.71;81.62
3598;BME280;1813;52.016;8.714;2023-12-22T08:50:20;-16261.94;;;-139.71;81.47
3598;BME280;1813;52.016;8.714;2023-12-22T08:52:53;-16261.94;;;-139.71;81.74
3598;BME280;1813;52.016;8.714;2023-12-22T08:55:27;-16261.94;;;-139.71;81.72
3598;BME280;1813;52.016;8.714;2023-12-22T08:58:00;-16261.94;;;-139.71;81.98
3598;BME280;1813;52.016;8.714;2023-12-22T09:00:33;-16261.94;;;-139.71;81.74
3598;BME280;1813;52.016;8.714;2023-12-22T09:03:06;-16261.94;;;-139.71;81.50
3598;BME280;1813;52.016;8.714;2023-12-22T09:05:43;-16261.94;;;-139.71;81.26
3598;BME280;1813;52.016;8.714;2023-12-22T09:08:17;-16261.94;;;-139.71;80.91
3598;BME280;1813;52.016;8.714;2023-12-22T09:10:50;-16261.94;;;-139.71;80.67
3598;BME280;1813;52.016;8.714;2023-12-22T09:13:24;-16261.94;;;-139.71;80.77
3598;BME280;1813;52.016;8.714;2023-12-22T09:15:58;-16261.94;;;-139.71;80.86
3598;BME280;1813;52.016;8.714;2023-12-22T09:18:31;-16261.94;;;-139.71;81.04
3598;BME280;1813;52.016;8.714;2023-12-22T09:21:07;-16261.94;;;-139.71;81.35
3598;BME280;1813;52.016;8.714;2023-12-22T09:23:41;-16261.94;;;-139.71;81.57
3598;BME280;1813;52.016;8.714;2023-12-22T09:26:16;-16261.94;;;-139.71;81.74
3598;BME280;1813;52.016;8.714;2023-12-22T09:28:50;-16261.94;;;-139.71;81.80
3598;BME280;1813;52.016;8.714;2023-12-22T09:31:23;-16261.94;;;-139.71;82.38
3598;BME280;1813;52.016;8.714;2023-12-22T09:33:56;-16261.94;;;-139.71;83.07
3598;BME280;1813;52.016;8.714;2023-12-22T09:36:32;-16261.94;;;-139.71;83.46
3598;BME280;1813;52.016;8.714;2023-12-22T09:39:05;-16261.94;;;-139.71;83.76
3598;BME280;1813;52.016;8.714;2023-12-22T09:41:39;-16261.94;;;-139.71;84.12
3598;BME280;1813;52.016;8.714;2023-12-22T09:44:13;-16261.94;;;-139.71;84.58
3598;BME280;1813;52.016;8.714;2023-12-22T09:46:47;-16261.94;;;-139.71;84.92
3598;BME280;1813;52.016;8.714;2023-12-22T09:49:23;-16261.94;;;-139.71;85.23
3598;BME280;1813;52.016;8.714;2023-12-22T09:52:01;-16261.94;;;-139.71;85.45
3598;BME280;1813;52.016;8.714;2023-12-22T09:54:36;-16261.94;;;-139.71;85.91
3598;BME280;1813;52.016;8.714;2023-12-22T09:57:10;-16261.94;;;-139.71;86.16
3598;BME280;1813;52.016;8.714;2023-12-22T09:59:43;-16261.94;;;-139.71;86.39
3598;BME280;1813;52.016;8.714;2023-12-22T10:02:17;-16261.94;;;-139.71;86.80
3598;BME280;1813;52.016;8.714;2023-12-22T10:04:50;-16261.94;;;-139.71;86.84
3598;BME280;1813;52.016;8.714;2023-12-22T10:07:26;-16261.94;;;-139.71;87.27
3598;BME280;1813;52.016;8.714;2023-12-22T10:10:00;-16261.94;;;-139.71;87.52
3598;BME280;1813;52.016;8.714;2023-12-22T10:12:34;-16261.94;;;-139.71;87.75
3598;BME280;1813;52.016;8.714;2023-12-22T10:15:08;-16261.94;;;-139.71;87.87
3598;BME280;1813;52.016;8.714;2023-12-22T10:17:42;-16261.94;;;-139.71;87.68
3598;BME280;1813;52.016;8.714;2023-12-22T10:20:17;-16261.94;;;-139.71;87.54
3598;BME280;1813;52.016;8.714;2023-12-22T10:22:54;-16261.94;;;-139.71;87.41
3598;BME280;1813;52.016;8.714;2023-12-22T10:25:28;-16261.94;;;-139.71;87.55
3598;BME280;1813;52.016;8.714;2023-12-22T10:28:03;-16261.94;;;-139.71;87.87
3598;BME280;1813;52.016;8.714;2023-12-22T10:30:37;-16261.94;;;-139.71;88.18
3598;BME280;1813;52.016;8.714;2023-12-22T10:33:11;-16261.94;;;-139.71;88.43
3598;BME280;1813;52.016;8.714;2023-12-22T10:35:44;-16261.94;;;-139.71;88.67
3598;BME280;1813;52.016;8.714;2023-12-22T10:38:21;-16261.94;;;-139.71;88.74
3598;BME280;1813;52.016;8.714;2023-12-22T10:40:55;-16261.94;;;-139.71;88.78
3598;BME280;1813;52.016;8.714;2023-12-22T10:43:28;-16261.94;;;-139.71;88.81
3598;BME280;1813;52.016;8.714;2023-12-22T10:46:02;-16261.94;;;-139.71;88.68
3598;BME280;1813;52.016;8.714;2023-12-22T10:48:36;-16261.94;;;-139.71;88.52
3598;BME280;1813;52.016;8.714;2023-12-22T10:51:09;-16261.94;;;-139.71;88.28
3598;BME280;1813;52.016;8.714;2023-12-22T10:53:45;-16261.94;;;-139.71;88.28
3598;BME280;1813;52.016;8.714;2023-12-22T10:56:20;-16261.94;;;-139.71;88.53
3598;BME280;1813;52.016;8.714;2023-12-22T10:58:54;-16261.94;;;-139.71;88.54
3598;BME280;1813;52.016;8.714;2023-12-22T11:01:29;-16261.94;;;-139.71;88.40
3598;BME280;1813;52.016;8.714;2023-12-22T11:04:06;-16261.94;;;-139.71;88.49
3598;BME280;1813;52.016;8.714;2023-12-22T11:06:41;-16261.94;;;-139.71;88.34
3598;BME280;1813;52.016;8.714;2023-12-22T11:09:21;-16261.94;;;-139.71;88.42
3598;BME280;1813;52.016;8.714;2023-12-22T11:11:56;-16261.94;;;-139.71;88.12
3598;BME280;1813;52.016;8.714;2023-12-22T11:14:32;-16261.94;;;-139.71;87.75
3598;BME280;1813;52.016;8.714;2023-12-22T11:17:06;-16261.94;;;-139.71;87.71
3598;BME280;1813;52.016;8.714;2023-12-22T11:19:41;-16261.94;;;-139.71;87.71
3598;BME280;1813;52.016;8.714;2023-12-22T11:22:18;-16261.94;;;-139.71;87.90
3598;BME280;1813;52.016;8.714;2023-12-22T11:24:55;-16261.94;;;-139.71;87.94
3598;BME280;1813;52.016;8.714;2023-12-22T11:27:33;-16261.94;;;-139.71;87.94
3598;BME280;1813;52.016;8.714;2023-12-22T11:30:07;-16261.94;;;-139.71;88.29
3598;BME280;1813;52.016;8.714;2023-12-22T11:32:43;-16261.94;;;-139.71;88.14
3598;BME280;1813;52.016;8.714;2023-12-22T11:35:17;-16261.94;;;-139.71;88.51
3598;BME280;1813;52.016;8.714;2023-12-22T11:37:51;-16261.94;;;-139.71;88.61
3598;BME280;1813;52.016;8.714;2023-12-22T11:40:28;-16261.94;;;-139.71;88.54
3598;BME280;1813;52.016;8.714;2023-12-22T11:43:02;-16261.94;;;-139.71;88.70
3598;BME280;1813;52.016;8.714;2023-12-22T11:45:36;-16261.94;;;-139.71;89.06
3598;BME280;1813;52.016;8.714;2023-12-22T11:48:10;-16261.94;;;-139.71;89.06
3598;BME280;1813;52.016;8.714;2023-12-22T11:50:44;-16261.94;;;-139.71;89.36
3598;BME280;1813;52.016;8.714;2023-12-22T11:53:17;-16261.94;;;-139.71;89.31
3598;BME280;1813;52.016;8.714;2023-12-22T11:56:01;-16261.94;;;-139.71;89.43
3598;BME280;1813;52.016;8.714;2023-12-22T11:58:37;-16261.94;;;-139.71;89.64
3598;BME280;1813;52.016;8.714;2023-12-22T12:01:12;-16261.94;;;-139.71;89.66
3598;BME280;1813;52.016;8.714;2023-12-22T12:03:49;-16261.94;;;-139.71;90.09
3598;BME280;1813;52.016;8.714;2023-12-22T12:06:31;-16261.94;;;-139.71;90.13
3598;BME280;1813;52.016;8.714;2023-12-22T12:09:11;-16261.94;;;-139.71;90.37
3598;BME280;1813;52.016;8.714;2023-12-22T12:12:11;-16261.94;;;-139.71;90.25
3598;BME280;1813;52.016;8.714;2023-12-22T12:14:47;-16261.94;;;-139.71;90.41
3598;BME280;1813;52.016;8.714;2023-12-22T12:17:24;-16261.94;;;-139.71;89.97
3598;BME280;1813;52.016;8.714;2023-12-22T12:19:59;-16261.94;;;-139.71;90.03
3598;BME280;1813;52.016;8.714;2023-12-22T12:22:33;-16261.94;;;-139.71;90.14
3598;BME280;1813;52.016;8.714;2023-12-22T12:25:08;-16261.94;;;-139.71;90.16
3598;BME280;1813;52.016;8.714;2023-12-22T12:27:45;-16261.94;;;-139.71;90.29
3598;BME280;1813;52.016;8.714;2023-12-22T12:30:20;-16261.94;;;-139.71;90.27
3598;BME280;1813;52.016;8.714;2023-12-22T12:32:54;-16261.94;;;-139.71;90.19
3598;BME280;1813;52.016;8.714;2023-12-22T12:35:28;-16261.94;;;-139.71;90.20
3598;BME280;1813;52.016;8.714;2023-12-22T12:38:02;-16261.94;;;-139.71;90.11
3598;BME280;1813;52.016;8.714;2023-12-22T12:40:38;-16261.94;;;-139.71;89.90
3598;BME280;1813;52.016;8.714;2023-12-22T12:43:15;-16261.94;;;-139.71;89.72
3598;BME280;1813;52.016;8.714;2023-12-22T12:45:48;-16261.94;;;-139.71;89.50
3598;BME280;1813;52.016;8.714;2023-12-22T12:48:21;-16261.94;;;-139.71;89.00
3598;BME280;1813;52.016;8.714;2023-12-22T12:50:55;-16261.94;;;-139.71;88.92
3598;BME280;1813;52.016;8.714;2023-12-22T12:53:30;-16261.94;;;-139.71;88.48
3598;BME280;1813;52.016;8.714;2023-12-22T12:56:04;-16261.94;;;-139.71;88.08
3598;BME280;1813;52.016;8.714;2023-12-22T12:58:40;-16261.94;;;-139.71;87.92
3598;BME280;1813;52.016;8.714;2023-12-22T13:01:14;-16261.94;;;-139.71;87.57
3598;BME280;1813;52.016;8.714;2023-12-22T13:03:51;-16261.94;;;-139.71;87.21
3598;BME280;1813;52.016;8.714;2023-12-22T13:06:25;-16261.94;;;-139.71;86.99
3598;BME280;1813;52.016;8.714;2023-12-22T13:08:59;-16261.94;;;-139.71;87.00
3598;BME280;1813;52.016;8.714;2023-12-22T13:11:35;-16261.94;;;-139.71;87.16
3598;BME280;1813;52.016;8.714;2023-12-22T13:14:11;-16261.94;;;-139.71;87.07
3598;BME280;1813;52.016;8.714;2023-12-22T13:16:44;-16261.94;;;-139.71;87.02
3598;BME280;1813;52.016;8.714;2023-12-22T13:19:18;-16261.94;;;-139.71;87.02
3598;BME280;1813;52.016;8.714;2023-12-22T13:21:51;-16261.94;;;-139.71;86.91
3598;BME280;1813;52.016;8.714;2023-12-22T13:24:25;-16261.94;;;-139.71;87.14
3598;BME280;1813;52.016;8.714;2023-12-22T13:27:01;-16261.94;;;-139.71;87.22